Item Display Status Serial CT Sensor

Mooring Depth: 1 m

 

Deployed Sensor

  • Serial Number: 12489
  • NDBC Property Number: 38947
  • Start Date: 3/30/2020 (09:07:55 Z)
  • End Date: Currently Active
Water Temperature [°C]     6 entries per hour
Showing data from 12/3/2020 (17:00:00 Z) to 12/2/2020 (00:00:01 Z)
Previous Next [ Day | 3-Days | 7-Days ]
First Last
Prev [ Day | 3-Days | 7-Days ] Next
First Last

Start Time:     :
End Time:     :     
Time (in GMT) :00 :50 :40 :30 :20 :10
Previous Next [ Day | 3-Days | 7-Days ]
First Last
Prev [ Day | 3-Days | 7-Days ] Next
First Last


123 => good data
MM => data is determined as missing
-- => data not received/configured
Back to Top Back to Top
12/3/2020 17:00 to 16:10 22.013 22.007 21.990 21.980 21.989 21.966
12/3/2020 16:00 to 15:10 21.971 21.957 21.945 21.947 21.940 21.942
12/3/2020 15:00 to 14:10 21.936 21.941 21.939 21.946 21.940 21.945
12/3/2020 14:00 to 13:10 21.944 21.941 21.954 21.948 21.958 21.959
12/3/2020 13:00 to 12:10 21.958 21.965 21.971 21.970 21.969 21.973
12/3/2020 12:00 to 11:10 21.970 21.965 21.975 21.973 21.985 21.987
12/3/2020 11:00 to 10:10 21.985 21.990 21.991 21.995 21.998 22.003
12/3/2020 10:00 to 9:10 22.005 21.986 21.999 22.003 22.008 22.011
12/3/2020 09:00 to 8:10 22.009 22.015 22.020 22.026 22.034 22.035
12/3/2020 08:00 to 7:10 22.048 22.051 22.056 22.055 22.056 22.065
12/3/2020 07:00 to 6:10 22.085 22.081 22.077 22.093 22.094 22.094
12/3/2020 06:00 to 5:10 22.112 22.132 22.110 22.151 22.155 22.177
12/3/2020 05:00 to 4:10 22.169 22.165 22.185 22.205 22.207 22.210
12/3/2020 04:00 to 3:10 22.220 22.219 22.222 22.224 22.239 22.228
12/3/2020 03:00 to 2:10 22.248 22.241 22.256 22.274 22.292 22.265
12/3/2020 02:00 to 1:10 22.291 22.314 22.297 22.345 22.388 22.381
12/3/2020 01:00 to 0:10 22.403 22.429 22.468 22.435 22.423 22.468
12/3/2020 00:00 to 23:10 22.510 22.514 22.464 22.461 22.526 22.509
12/2/2020 23:00 to 22:10 22.572 22.592 22.592 22.677 22.615 22.624
12/2/2020 22:00 to 21:10 22.588 22.531 22.526 22.547 22.487 22.489
12/2/2020 21:00 to 20:10 22.437 22.514 22.502 22.402 22.418 22.452
12/2/2020 20:00 to 19:10 22.416 22.354 22.351 22.284 22.245 22.272
12/2/2020 19:00 to 18:10 22.248 22.226 22.211 22.230 22.243 22.219
12/2/2020 18:00 to 17:10 22.188 22.199 22.176 22.141 22.146 22.122
12/2/2020 17:00 to 16:10 22.088 22.100 22.056 22.040 22.045 22.033
12/2/2020 16:00 to 15:10 22.017 22.026 21.992 21.985 21.993 21.989
12/2/2020 15:00 to 14:10 21.979 21.981 21.989 21.988 21.990 21.976
12/2/2020 14:00 to 13:10 21.964 21.971 21.968 21.983 21.986 21.990
12/2/2020 13:00 to 12:10 21.995 21.994 21.997 21.982 21.973 21.975
12/2/2020 12:00 to 11:10 21.990 21.986 21.996 22.002 21.999 21.990
12/2/2020 11:00 to 10:10 22.003 22.005 22.019 22.032 22.032 22.017
12/2/2020 10:00 to 9:10 22.029 22.043 22.039 22.048 22.076 22.079
12/2/2020 09:00 to 8:10 22.065 22.049 22.057 22.060 22.015 22.036
12/2/2020 08:00 to 7:10 22.040 22.039 22.041 22.063 22.079 22.048
12/2/2020 07:00 to 6:10 22.059 22.069 22.088 22.111 22.135 22.145
12/2/2020 06:00 to 5:10 22.164 22.168 22.148 22.170 22.182 22.193
12/2/2020 05:00 to 4:10 22.193 22.187 22.213 22.205 22.216 22.216
12/2/2020 04:00 to 3:10 22.258 22.213 22.195 22.199 22.234 22.250
12/2/2020 03:00 to 2:10 22.287 22.250 22.275 22.290 22.293 22.334
12/2/2020 02:00 to 1:10 22.323 22.347 22.368 22.371 22.361 22.370
12/2/2020 01:00 to 0:10 22.398 22.409 22.398 22.426 22.396 22.417

 

 

 

Conductivity [S/m]     6 entries per hour
Showing data from 12/3/2020 (17:00:00 Z) to 12/2/2020 (00:00:01 Z)
Previous Next [ Day | 3-Days | 7-Days ]
First Last
Prev [ Day | 3-Days | 7-Days ] Next
First Last

Start Time:     :
End Time:     :     
Time (in GMT) :00 :50 :40 :30 :20 :10
Previous Next [ Day | 3-Days | 7-Days ]
First Last
Prev [ Day | 3-Days | 7-Days ] Next
First Last


123 => good data
MM => data is determined as missing
-- => data not received/configured
Back to Top Back to Top
12/3/2020 17:00 to 16:10 4.96967 4.96915 4.96681 4.96659 4.96659 4.96444
12/3/2020 16:00 to 15:10 4.96510 4.96358 4.96233 4.96240 4.96143 4.96203
12/3/2020 15:00 to 14:10 4.96161 4.96214 4.96175 4.96232 4.96190 4.96225
12/3/2020 14:00 to 13:10 4.96212 4.96167 4.96334 4.96266 4.96351 4.96376
12/3/2020 13:00 to 12:10 4.96366 4.96453 4.96508 4.96461 4.96476 4.96502
12/3/2020 12:00 to 11:10 4.96420 4.96346 4.96465 4.96427 4.96494 4.96547
12/3/2020 11:00 to 10:10 4.96569 4.96494 4.96591 4.96649 4.96687 4.96621
12/3/2020 10:00 to 9:10 4.96764 4.96599 4.96751 4.96835 4.96885 4.96912
12/3/2020 09:00 to 8:10 4.96897 4.96942 4.97041 4.97090 4.97167 4.97173
12/3/2020 08:00 to 7:10 4.97298 4.97335 4.97391 4.97378 4.97374 4.97485
12/3/2020 07:00 to 6:10 4.97672 4.97634 4.97645 4.97770 4.97800 4.97772
12/3/2020 06:00 to 5:10 4.97928 4.98148 4.97979 4.98331 4.98395 4.98655
12/3/2020 05:00 to 4:10 4.98543 4.98504 4.98718 4.98896 4.98923 4.98952
12/3/2020 04:00 to 3:10 4.99067 4.99056 4.99097 4.99125 4.99268 4.99133
12/3/2020 03:00 to 2:10 4.99340 4.99248 4.99427 4.99608 4.99816 4.99566
12/3/2020 02:00 to 1:10 4.99846 5.00015 4.99831 5.00330 5.00752 5.00706
12/3/2020 01:00 to 0:10 5.00899 5.01180 5.01587 5.01301 5.01181 5.01585
12/3/2020 00:00 to 23:10 5.01915 5.01994 5.01573 5.01686 5.02213 5.02085
12/2/2020 23:00 to 22:10 5.02760 5.02888 5.02962 5.03819 5.03076 5.03225
12/2/2020 22:00 to 21:10 5.02884 5.02296 5.02575 5.02475 5.01839 5.01904
12/2/2020 21:00 to 20:10 5.01262 5.01955 5.01849 5.00958 5.01296 5.01416
12/2/2020 20:00 to 19:10 5.00905 5.00424 5.00378 4.99739 4.99327 4.99544
12/2/2020 19:00 to 18:10 4.99431 4.99165 4.98895 4.99213 4.99244 4.98987
12/2/2020 18:00 to 17:10 4.98701 4.98811 4.98654 4.98264 4.98209 4.98012
12/2/2020 17:00 to 16:10 4.97724 4.97752 4.97353 4.97203 4.97202 4.97180
12/2/2020 16:00 to 15:10 4.97027 4.97070 4.96759 4.96650 4.96713 4.96692
12/2/2020 15:00 to 14:10 4.96601 4.96635 4.96709 4.96702 4.96704 4.96563
12/2/2020 14:00 to 13:10 4.96456 4.96513 4.96502 4.96644 4.96656 4.96723
12/2/2020 13:00 to 12:10 4.96750 4.96782 4.96791 4.96624 4.96557 4.96605
12/2/2020 12:00 to 11:10 4.96712 4.96693 4.96794 4.96844 4.96825 4.96704
12/2/2020 11:00 to 10:10 4.96888 4.96902 4.97016 4.97174 4.97149 4.96999
12/2/2020 10:00 to 9:10 4.97121 4.97277 4.97243 4.97331 4.97632 4.97647
12/2/2020 09:00 to 8:10 4.97527 4.97323 4.97420 4.97431 4.96989 4.97182
12/2/2020 08:00 to 7:10 4.97224 4.97228 4.97253 4.97483 4.97637 4.97323
12/2/2020 07:00 to 6:10 4.97451 4.97521 4.97720 4.97966 4.98231 4.98324
12/2/2020 06:00 to 5:10 4.98513 4.98571 4.98355 4.98581 4.98684 4.98781
12/2/2020 05:00 to 4:10 4.98802 4.98743 4.98984 4.98929 4.99077 4.99012
12/2/2020 04:00 to 3:10 4.99435 4.98988 4.98810 4.98829 4.99195 4.99347
12/2/2020 03:00 to 2:10 4.99694 4.99374 4.99619 4.99755 4.99824 5.00241
12/2/2020 02:00 to 1:10 5.00085 5.00300 5.00559 5.00638 5.00491 5.00573
12/2/2020 01:00 to 0:10 5.00860 5.01019 5.00881 5.01141 5.00885 5.01067

 

 

 

Salinity [psu]     6 entries per hour
Showing data from 12/3/2020 (17:00:00 Z) to 12/2/2020 (00:00:01 Z)
Previous Next [ Day | 3-Days | 7-Days ]
First Last
Prev [ Day | 3-Days | 7-Days ] Next
First Last

Start Time:     :
End Time:     :     
Time (in GMT) :00 :50 :40 :30 :20 :10
Previous Next [ Day | 3-Days | 7-Days ]
First Last
Prev [ Day | 3-Days | 7-Days ] Next
First Last


123 => good data
MM => data is determined as missing
-- => data not received/configured
Back to Top Back to Top
12/3/2020 17:00 to 16:10 34.78 34.78 34.78 34.78 34.78 34.78
12/3/2020 16:00 to 15:10 34.78 34.78 34.78 34.78 34.77 34.78
12/3/2020 15:00 to 14:10 34.78 34.78 34.78 34.78 34.78 34.78
12/3/2020 14:00 to 13:10 34.78 34.78 34.78 34.78 34.78 34.78
12/3/2020 13:00 to 12:10 34.78 34.78 34.78 34.78 34.78 34.78
12/3/2020 12:00 to 11:10 34.77 34.77 34.77 34.77 34.77 34.77
12/3/2020 11:00 to 10:10 34.77 34.76 34.77 34.77 34.77 34.76
12/3/2020 10:00 to 9:10 34.77 34.77 34.77 34.78 34.78 34.78
12/3/2020 09:00 to 8:10 34.78 34.78 34.78 34.78 34.78 34.78
12/3/2020 08:00 to 7:10 34.78 34.78 34.78 34.78 34.78 34.78
12/3/2020 07:00 to 6:10 34.78 34.78 34.78 34.78 34.78 34.78
12/3/2020 06:00 to 5:10 34.78 34.78 34.78 34.78 34.78 34.78
12/3/2020 05:00 to 4:10 34.78 34.78 34.78 34.78 34.78 34.78
12/3/2020 04:00 to 3:10 34.78 34.78 34.78 34.78 34.78 34.78
12/3/2020 03:00 to 2:10 34.78 34.78 34.78 34.78 34.78 34.78
12/3/2020 02:00 to 1:10 34.78 34.78 34.78 34.78 34.78 34.78
12/3/2020 01:00 to 0:10 34.78 34.78 34.78 34.78 34.78 34.78
12/3/2020 00:00 to 23:10 34.77 34.77 34.78 34.79 34.78 34.78
12/2/2020 23:00 to 22:10 34.79 34.78 34.79 34.78 34.78 34.78
12/2/2020 22:00 to 21:10 34.78 34.78 34.81 34.78 34.78 34.79
12/2/2020 21:00 to 20:10 34.78 34.77 34.77 34.78 34.79 34.78
12/2/2020 20:00 to 19:10 34.77 34.78 34.78 34.78 34.78 34.77
12/2/2020 19:00 to 18:10 34.79 34.78 34.77 34.78 34.77 34.77
12/2/2020 18:00 to 17:10 34.78 34.78 34.78 34.78 34.77 34.78
12/2/2020 17:00 to 16:10 34.78 34.77 34.78 34.78 34.77 34.78
12/2/2020 16:00 to 15:10 34.78 34.78 34.78 34.78 34.78 34.78
12/2/2020 15:00 to 14:10 34.78 34.78 34.78 34.78 34.78 34.78
12/2/2020 14:00 to 13:10 34.78 34.78 34.78 34.78 34.78 34.78
12/2/2020 13:00 to 12:10 34.78 34.78 34.78 34.78 34.78 34.78
12/2/2020 12:00 to 11:10 34.78 34.78 34.78 34.78 34.78 34.78
12/2/2020 11:00 to 10:10 34.78 34.78 34.78 34.78 34.78 34.78
12/2/2020 10:00 to 9:10 34.78 34.78 34.78 34.78 34.78 34.78
12/2/2020 09:00 to 8:10 34.78 34.78 34.78 34.78 34.78 34.78
12/2/2020 08:00 to 7:10 34.78 34.78 34.78 34.78 34.78 34.78
12/2/2020 07:00 to 6:10 34.78 34.78 34.78 34.78 34.78 34.78
12/2/2020 06:00 to 5:10 34.78 34.78 34.78 34.78 34.78 34.78
12/2/2020 05:00 to 4:10 34.78 34.78 34.78 34.78 34.78 34.78
12/2/2020 04:00 to 3:10 34.78 34.78 34.78 34.78 34.78 34.78
12/2/2020 03:00 to 2:10 34.77 34.78 34.78 34.78 34.78 34.78
12/2/2020 02:00 to 1:10 34.78 34.77 34.78 34.78 34.78 34.78
12/2/2020 01:00 to 0:10 34.78 34.78 34.78 34.78 34.78 34.78